ΕΜΥ, Εθνική Μετεωρολογική Υπηρεσία - Δελτία Καιρού, Προγνώσεις

ΑΕΡΟΝΑΥΤΙΛΙΑ

GREEK AIRPORTS CODES

LGKS 141100Z 31015KT 9999 FEW020 26/19 Q1012 RMK HAND WIND ANEMOMETER OBSERVATION=

EUROPEAN AIRPORTS CODES

LPPT 150500Z 03007KT CAVOK 21/14 Q1018=